Impacts METAR Board
IDs:

KPIT - Pittsburgh Intl, PA, US

Updated at: 1600 UTC 03 Dec 2021
Potential Impact None Slight Moderate High
Time 03/04Z 03/05Z 03/06Z 03/07Z 03/08Z 03/09Z 03/10Z 03/11Z 03/12Z 03/13Z 03/14Z 03/15Z 03/16Z
Temp43 43 42 40 39 39 37 38 38 37 38 39 40
Dewpt31 30 30 30 29 29 29 30 30 30 31 30 29
Altim29.92 29.95 29.96 30.00 29.99 29.99 30.01 30.03 30.04 30.07 30.08 30.09 30.10
VIS10 10 10 10 10 10 10 10 10 10 10 10 10
CIG48 50 50 -- 55 150 150 130 100 95 80 65 65
CoverOVCOVCOVCSCTBKNBKNBKNOVCOVCOVCOVCOVCOVC
FltCatVFRVFRVFRVFRVFRVFRVFRVFRVFRVFRVFRVFRVFR
WX--------------------------
WDir300300290280270260270320260280290300310
WSpd10 12 8 8 5 4 3 6 4 4 4 7 8
WGst-- -- -- -- -- -- -- -- -- -- -- -- --
Raw hourly METARs
KPIT 030351Z 30010KT 10SM OVC048 06/M01 A2992 RMK AO2 SLP144 T00611006
KPIT 030451Z 30012KT 10SM OVC050 06/M01 A2995 RMK AO2 SLP153 T00611011 401390061
KPIT 030551Z 29008KT 10SM FEW035 OVC050 06/M01 A2996 RMK AO2 SLP157 T00561011 10111 20056 51023
KPIT 030651Z 28008KT 10SM FEW032 SCT050 SCT160 04/M01 A3000 RMK AO2 SLP168 T00441011
KPIT 030751Z 27005KT 10SM BKN055 BKN160 04/M02 A2999 RMK AO2 SLP168 T00391017
KPIT 030851Z 26004KT 10SM SCT050 BKN150 04/M02 A2999 RMK AO2 SLP168 T00391017 51010
KPIT 030951Z 27003KT 10SM SCT050 BKN150 03/M02 A3001 RMK AO2 SLP175 T00281017
KPIT 031051Z 32006KT 10SM SCT050 OVC130 03/M01 A3003 RMK AO2 SLP182 T00331011
KPIT 031151Z 26004KT 10SM SCT050 OVC100 03/M01 A3004 RMK AO2 SLP186 70001 T00331011 10056 20022 51016
KPIT 031251Z 28004KT 10SM FEW035 BKN095 OVC250 03/M01 A3007 RMK AO2 SLP197 T00281011
KPIT 031351Z 29004KT 10SM FEW038 BKN080 OVC095 03/M01 A3008 RMK AO2 SLP200 T00331006
KPIT 031451Z 30007KT 10SM FEW030 BKN065 OVC080 04/M01 A3009 RMK AO2 SLP204 T00391011 51016
KPIT 031551Z 31008KT 10SM FEW030 BKN065 OVC110 04/M02 A3010 RMK AO2 SLP207 T00441017



Page loaded:  16:53 UTC  |   08:53 AM Pacific  |   09:53 AM Mountain  |   10:53 AM Central  |   11:53 AM Eastern

 

ADVISORIES

FORECASTS

FORECASTS

OBSERVATIONS

USER TOOLS

ABOUT US